Weather at Dobova Airfield

Public forecast

Using degrees Celsius for public forecast. Weather courtesy of forecast.io.

Closest aviation weather report (METAR) to Dobova Airfield

Closest report is Cerklje ob Krki Air Base, 5.1 nm (9.5 km) W.

2024/05/28 05:00 (retrieved 30 minutes ago)

LJCE 280500Z AUTO VRB01KT 9999 NSC 15/13 Q1015

Closest aviation forecast (TAF) to Dobova Airfield

Forecast is more than 12 hours old.

Closest forecast is Lošinj Island Airport, 95.5 nm (176.9 km) SW.

2024/05/26 14:36 Ammendment (retrieved 2 days ago)

TAF AMD LDLO 261432Z 2614/2712 CNL